KALM

Details ICAO KALM (ALM)
Name ALAMOGORDO WHITE SANDS RGNL
Region United States
Timezone America/Denver (UTC-6.0)
Plans Departing 15
Arriving 19
Stats Elevation 4,200 ft / 1,280 m (AMSL)
Location 32.841845° -105.988007°
Runways 2
Magnetic Variation 8.006° E
Sunrise 2018-05-24 12:01:04 UTC / 2018-05-24 06:01:04 Local
Sunset 2018-05-25 02:03:26 UTC / 2018-05-24 20:03:26 Local
Advertisement - Login to hide

Runways

ID Width Length Bearing (true) Bearing (mag) Surface Threshold Offset Overrun Length
03 150 ft / 46 m 7,007 ft / 2,136 m 45.42° 37.41° Asphalt 0 ft / 0 m 0 ft / 0 m
16 200 ft / 61 m 3,573 ft / 1,089 m 173.20° 165.19° Dirt 0 ft / 0 m 0 ft / 0 m
21 150 ft / 46 m 7,007 ft / 2,136 m 225.43° 217.42° Asphalt 0 ft / 0 m 0 ft / 0 m
34 200 ft / 61 m 3,573 ft / 1,089 m 353.20° 345.19° Dirt 0 ft / 0 m 0 ft / 0 m

Map

Weather


0- 5 10 15 20 25 30 35+ Temperature / ° C

Clouds and Precipitation
Forecast for 2018-05-25 00:00 UTC. Updated 5 hours ago

Ground ~20,000 ft ~40,000 ft Winds

METAR

KALM 250355Z AUTO 14004KT 10SM CLR 23/M02 A3007 RMK AO2

TAF

Not found

Frequencies

Recorded 127.82 MHz AWOS 3
Approach 120.60 MHz HOLLOMAN APP
Unicom 122.80 MHz CTAF/UNICOM
Departure 128.10 MHz HOLLOMAN DEP
Warning: Do not use this data for real-world aviation or navigation. No guarantee of current accuracy is given.